PAESEATTLE PAINE FLD INTL
METARs for airports near PAE, sorted by distance:
N 0 nm 606' KPAE 172153Z VRB06KT 10SM CLR 27/15 A3000
N 16 nm 141' KAWO 172156Z 30007KT 10SM CLR 27/15 A2996
S 22 nm 21' KBFI 172153Z VRB05KT 10SM CLR 28/16 A2997
S 25 nm 32' KRNT 172153Z 19009KT 10SM CLR 28/16 A2997
S 27 nm 432' KSEA 172153Z 21010KT 10SM FEW050 SCT150 BKN200 24/14 A3000
NW 30 nm 47' KNUW 172153Z 23009KT 10SM SCT110 BKN170 BKN250 17/13 A2998
SW 31 nm 444' KPWT 172156Z
N 34 nm 145' KBVS 172215Z 00000KT 8SM CLR 26/17 A2995
S 40 nm 294' KTIW 172153Z VRB06KT 10SM CLR 26/16 A3000
S 46 nm 322' KTCM 172155Z 33004KT 10SM CLR 27/15 A2999
NW 47 nm 112' KFHR 172153Z 12004KT 10SM CLR 23/13 A2997
W 47 nm 13' KNOW 172215Z 28014G19KT 10SM CLR 18/14 A2998
S 48 nm 537' KPLU 172215Z 00000KT 10SM CLR 28/15 A3001
W 50 nm 291' KCLM 172153Z 30008KT 10SM CLR 21/14 A2999
S 51 nm 301' KGRF 172205Z 26009KT 10SM SCT150 28/15 A2996
SW 53 nm 272' KSHN 172153Z 24013KT 10SM CLR 24/14 A2999
N 54 nm 171' KBLI 172153Z 19005KT 10SM CLR 25/16 A2994
NW 54 nm 34' KORS 172215Z 00000KT 9SM CLR 24/16 A2994
SW 61 nm 207' KOLM 172154Z 17006KT 10SM CLR 28/16 A3000
NW 63 nm 64' CYYJ 172200Z 10007KT 30SM BKN190 BKN230 23/15 A2994
S 79 nm 177' KCLS 172215Z 25005KT 10SM CLR 27/16 A3000
NW 85 nm 14' CYVR 172200Z 25005KT 30SM BKN200 24/15 A2994
SW 87 nm 17' KHQM 172153Z 24011KT 10SM OVC017 18/14 A3007
SE 88 nm 1763' KELN 172153Z 34007KT 10SM CLR 35/07 A2997
E 89 nm 1248' KEAT 172155Z 09006KT 9SM FEW046 SCT095 SCT120 33/09 A2992
W 91 nm 194' KUIL 172211Z 20010G18KT 10SM BKN007 OVC012 18/14 A3005
NW 93 nm 92' CYCD 172200Z 05007KT 030V100 30SM FEW250 32/13 A2993
TAFs for airports near PAE, sorted by distance:
N 0 nm 606' KPAE KPAE 171740Z 1718/1818 19006KT P6SM BKN150
  FM172000 31006KT P6SM FEW050 SCT150
  FM180600 19006KT P6SM SKC
  FM181000 19006KT P6SM OVC006
  FM181700 21006KT P6SM SCT010
S 22 nm 21' KBFI KBFI 171740Z 1718/1818 25005KT P6SM BKN150
  FM180300 20006KT P6SM SKC
  FM180900 28006KT P6SM OVC012
  FM181700 20005KT P6SM SCT015
S 27 nm 432' KSEA KSEA 171740Z 1718/1824 21006KT P6SM BKN150
  FM172000 25006KT P6SM FEW050 SCT150
  FM180300 21006KT P6SM SKC
  FM180900 21006KT P6SM OVC008
  FM181700 21006KT P6SM OVC012
  FM181900 24006KT P6SM FEW250
NW 30 nm 47' KNUW TAF COR KNUW 1623/1723 VRB06KT 9999 FEW080 FEW120 SCT250 QNH2988INS
  FM171000 VRB06KT 9999 SCT015 SCT150 QNH2988INS
  TEMPO 1710/1714 00000KT 3200 BR BCFG SCT005 BKN015 BKN150
  FM171400 VRB05KT 9999 SCT015 BKN150 BKN220 QNH2992INS
  FM172100 27008KT 9999 BKN120 BKN250 QNH2995INS TX21/1623Z TN11/1713Z COR 0245 FS30046
SW 31 nm 444' KPWT TAF KPWT 171740Z 1718/1818 19006KT P6SM BKN150
  FM180300 19006KT P6SM SKC
  FM180800 19006KT P6SM OVC006
  FM181200 21009KT P6SM OVC003
  AMD NOT SKED
S 46 nm 322' KTCM TAF TAF KTCM 172100Z 1721/1903 25012KT 9999 FEW150 SCT210 QNH2999INS
  BECMG 1806/1807 22006KT 9999 SCT020 BKN040 QNH3006INS
  BECMG 1809/1810 25005KT 9999 SCT015 BKN025 QNH3007INS
  BECMG 1816/1817 24009KT 9999 SKC QNH3005INS TX29/1723Z TN13/1813Z
W 50 nm 291' KCLM KCLM 171740Z 1718/1818 30006KT P6SM BKN150
  FM180200 29012KT P6SM SCT150
  FM181000 29008KT P6SM OVC008
  FM181600 32005KT P6SM BKN015
S 51 nm 301' KGRF TAF KGRF 172100Z 1721/1903 24009KT 9999 SCT160 SCT220 QNH2997INS
  BECMG 1804/1805 24008KT 9999 FEW021 QNH3004INS
  BECMG 1808/1809 24005KT 9999 SKC QNH3005INS
  BECMG 1820/1821 24010KT 9999 SKC QNH3003INS TX28/1800Z TN13/1813Z
N 54 nm 171' KBLI KBLI 171740Z 1718/1818 VRB03KT P6SM BKN150
  FM172000 21006KT P6SM SCT150
  FM181100 21006KT P6SM OVC012
SW 61 nm 207' KOLM KOLM 171740Z 1718/1818 24006KT P6SM SCT150
  FM172000 27008KT P6SM SCT150
  FM180900 21006KT P6SM OVC012
  FM181700 22005KT P6SM SCT015
SW 87 nm 17' KHQM TAF KHQM 171740Z 1718/1818 21008KT P6SM OVC006
  FM171900 24012KT P6SM OVC012
  FM180200 24008KT P6SM OVC008
  FM180900 21006KT P6SM OVC004
E 89 nm 1248' KEAT KEAT 171739Z 1718/1818 VRB04KT P6SM SKC
  FM172000 12006KT P6SM SCT120 BKN200
  FM180300 29010KT P6SM SCT120 BKN200
  FM181200 30008KT P6SM BKN250

Shortcut to this page: http://wxbay.com.

Data may contain errors.